RYR7KN EPGD-LDZD
Flight info
| Callsign | RYR7KN |
|---|---|
| Flight time | 2h 2m |
| Altitude | 37000 |
| Route | IRLUN N133 NASOK DCT DESEN/N0439F380 DCT MIKOV DCT INSAX DCT PETOV DCT KOTOR DCT KUDUL |
| Aircraft | B738/M-SDE3FGILRWY/SB1 |
Departure
| Time | 2026-05-06 16:11 |
|---|---|
| Airport | Gdańsk Lech Wałęsa Airport (EPGD) |
Arrival
| Time | 2026-05-06 18:14 |
|---|---|
| Airport | Zadar Airport (LDZD) |
| Time | Latitude | Longitude | Altitude | Speed | Heading |
|---|---|---|---|---|---|
| 2026-05-06 15:37 | 54.38100 | 18.46676 | 459 ft | 0 kts | 23° |
| 2026-05-06 16:02 | 54.38099 | 18.46676 | 459 ft | 1 kts | 23° |
| 2026-05-06 16:03 | 54.38087 | 18.46667 | 457 ft | 3 kts | 28° |
| 2026-05-06 16:03 | 54.38070 | 18.46649 | 457 ft | 3 kts | 33° |
| 2026-05-06 16:03 | 54.38052 | 18.46631 | 456 ft | 3 kts | 27° |
| 2026-05-06 16:03 | 54.38035 | 18.46616 | 455 ft | 3 kts | 21° |
| 2026-05-06 16:04 | 54.38021 | 18.46606 | 459 ft | 1 kts | 23° |
| 2026-05-06 16:04 | 54.38007 | 18.46597 | 459 ft | 3 kts | 5° |
| 2026-05-06 16:04 | 54.37990 | 18.46600 | 455 ft | 3 kts | 321° |
| 2026-05-06 16:04 | 54.37978 | 18.46625 | 458 ft | 3 kts | 294° |
| 2026-05-06 16:05 | 54.37972 | 18.46649 | 458 ft | 1 kts | 293° |
| 2026-05-06 16:05 | 54.37972 | 18.46651 | 458 ft | 0 kts | 293° |
| 2026-05-06 16:07 | 54.37972 | 18.46649 | 458 ft | 2 kts | 293° |
| 2026-05-06 16:08 | 54.37979 | 18.46595 | 455 ft | 6 kts | 265° |
| 2026-05-06 16:08 | 54.37967 | 18.46509 | 458 ft | 8 kts | 272° |
| 2026-05-06 16:08 | 54.37988 | 18.46415 | 458 ft | 8 kts | 294° |
| 2026-05-06 16:08 | 54.38012 | 18.46322 | 457 ft | 9 kts | 294° |
| 2026-05-06 16:09 | 54.38037 | 18.46220 | 458 ft | 10 kts | 292° |
| 2026-05-06 16:09 | 54.38065 | 18.46104 | 458 ft | 11 kts | 293° |
| 2026-05-06 16:09 | 54.38097 | 18.45973 | 458 ft | 13 kts | 293° |
| 2026-05-06 16:09 | 54.38136 | 18.45816 | 454 ft | 15 kts | 293° |
| 2026-05-06 16:10 | 54.38131 | 18.45651 | 454 ft | 15 kts | 216° |
| 2026-05-06 16:10 | 54.38039 | 18.45581 | 454 ft | 10 kts | 203° |
| 2026-05-06 16:10 | 54.38009 | 18.45607 | 454 ft | 5 kts | 118° |
| 2026-05-06 16:10 | 54.37996 | 18.45659 | 455 ft | 6 kts | 113° |
| 2026-05-06 16:11 | 54.37945 | 18.45863 | 455 ft | 47 kts | 112° |
| 2026-05-06 16:11 | 54.37724 | 18.46757 | 456 ft | 115 kts | 112° |
| 2026-05-06 16:11 | 54.37339 | 18.48316 | 523 ft | 163 kts | 109° |
| 2026-05-06 16:11 | 54.36887 | 18.50051 | 1429 ft | 153 kts | 109° |
| 2026-05-06 16:12 | 54.36502 | 18.51687 | 2382 ft | 145 kts | 111° |
| 2026-05-06 16:12 | 54.36100 | 18.53349 | 2858 ft | 163 kts | 114° |
| 2026-05-06 16:12 | 54.35567 | 18.55243 | 3088 ft | 190 kts | 130° |
| 2026-05-06 16:12 | 54.34400 | 18.56384 | 3285 ft | 205 kts | 175° |
| 2026-05-06 16:13 | 54.32934 | 18.56497 | 3513 ft | 222 kts | 180° |
| 2026-05-06 16:13 | 54.31343 | 18.56609 | 3796 ft | 239 kts | 180° |
| 2026-05-06 16:13 | 54.29632 | 18.56762 | 4291 ft | 251 kts | 180° |
| 2026-05-06 16:13 | 54.27890 | 18.56947 | 5183 ft | 249 kts | 180° |
| 2026-05-06 16:14 | 54.26151 | 18.57151 | 5991 ft | 252 kts | 181° |
| 2026-05-06 16:14 | 54.24396 | 18.57371 | 6782 ft | 254 kts | 180° |
| 2026-05-06 16:14 | 54.22623 | 18.57603 | 7525 ft | 257 kts | 180° |
| 2026-05-06 16:14 | 54.20831 | 18.57845 | 8269 ft | 260 kts | 180° |
| 2026-05-06 16:15 | 54.19019 | 18.58095 | 9021 ft | 263 kts | 180° |
| 2026-05-06 16:15 | 54.17188 | 18.58350 | 9766 ft | 265 kts | 180° |
| 2026-05-06 16:15 | 54.15318 | 18.58611 | 10214 ft | 279 kts | 180° |
| 2026-05-06 16:15 | 54.13308 | 18.58887 | 10354 ft | 301 kts | 180° |
| 2026-05-06 16:16 | 54.11151 | 18.59187 | 10553 ft | 320 kts | 180° |
| 2026-05-06 16:16 | 54.08904 | 18.59508 | 11036 ft | 328 kts | 180° |
| 2026-05-06 16:16 | 54.06617 | 18.59839 | 11665 ft | 332 kts | 180° |
| 2026-05-06 16:16 | 54.04306 | 18.60173 | 12334 ft | 335 kts | 180° |
| 2026-05-06 16:17 | 54.01971 | 18.60509 | 12998 ft | 339 kts | 180° |
| 2026-05-06 16:17 | 53.99602 | 18.60847 | 13649 ft | 344 kts | 180° |
| 2026-05-06 16:17 | 53.97207 | 18.61186 | 14270 ft | 347 kts | 180° |
| 2026-05-06 16:17 | 53.94794 | 18.61528 | 14930 ft | 350 kts | 180° |
| 2026-05-06 16:18 | 53.92361 | 18.61728 | 15576 ft | 351 kts | 184° |
| 2026-05-06 16:18 | 53.89911 | 18.61715 | 16215 ft | 353 kts | 186° |
| 2026-05-06 16:18 | 53.87443 | 18.61648 | 16852 ft | 357 kts | 186° |
| 2026-05-06 16:18 | 53.84949 | 18.61587 | 17492 ft | 360 kts | 185° |
| 2026-05-06 16:19 | 53.82461 | 18.61548 | 18093 ft | 365 kts | 185° |
| 2026-05-06 16:19 | 53.79917 | 18.61522 | 18669 ft | 367 kts | 185° |
| 2026-05-06 16:19 | 53.77354 | 18.61532 | 19284 ft | 370 kts | 182° |
| 2026-05-06 16:19 | 53.74773 | 18.62118 | 19900 ft | 379 kts | 173° |
| 2026-05-06 16:20 | 53.72228 | 18.63414 | 20515 ft | 388 kts | 163° |
| 2026-05-06 16:20 | 53.69735 | 18.65216 | 21102 ft | 391 kts | 162° |
| 2026-05-06 16:20 | 53.67238 | 18.67083 | 21663 ft | 394 kts | 161° |
| 2026-05-06 16:20 | 53.64723 | 18.68960 | 22204 ft | 397 kts | 162° |
| 2026-05-06 16:21 | 53.62186 | 18.70832 | 22735 ft | 399 kts | 162° |
| 2026-05-06 16:21 | 53.59630 | 18.72698 | 23281 ft | 402 kts | 162° |
| 2026-05-06 16:21 | 53.57054 | 18.74567 | 23715 ft | 404 kts | 162° |
| 2026-05-06 16:21 | 53.54461 | 18.76439 | 24146 ft | 407 kts | 163° |
| 2026-05-06 16:22 | 53.51852 | 18.78300 | 24561 ft | 408 kts | 165° |
| 2026-05-06 16:22 | 53.49167 | 18.79890 | 24840 ft | 411 kts | 168° |
| 2026-05-06 16:22 | 53.46432 | 18.81317 | 25243 ft | 412 kts | 169° |
| 2026-05-06 16:22 | 53.43679 | 18.82704 | 25728 ft | 413 kts | 169° |
| 2026-05-06 16:23 | 53.40931 | 18.84095 | 26177 ft | 414 kts | 169° |
| 2026-05-06 16:23 | 53.38168 | 18.85513 | 26521 ft | 417 kts | 169° |
| 2026-05-06 16:23 | 53.35382 | 18.86959 | 26845 ft | 421 kts | 169° |
| 2026-05-06 16:23 | 53.32574 | 18.88428 | 27209 ft | 424 kts | 169° |
| 2026-05-06 16:24 | 53.29756 | 18.89908 | 27604 ft | 425 kts | 169° |
| 2026-05-06 16:24 | 53.26930 | 18.91393 | 27982 ft | 427 kts | 169° |
| 2026-05-06 16:24 | 53.24087 | 18.92883 | 28340 ft | 429 kts | 169° |
| 2026-05-06 16:24 | 53.21229 | 18.94377 | 28690 ft | 431 kts | 169° |
| 2026-05-06 16:25 | 53.18364 | 18.95872 | 29057 ft | 432 kts | 169° |
| 2026-05-06 16:25 | 53.15483 | 18.97371 | 29402 ft | 434 kts | 169° |
| 2026-05-06 16:25 | 53.12587 | 18.98775 | 29748 ft | 431 kts | 175° |
| 2026-05-06 16:25 | 53.09650 | 18.99281 | 30150 ft | 420 kts | 186° |
| 2026-05-06 16:26 | 53.06766 | 18.98953 | 30584 ft | 411 kts | 194° |
| 2026-05-06 16:26 | 53.04010 | 18.97878 | 30950 ft | 405 kts | 203° |
| 2026-05-06 16:26 | 53.01347 | 18.96361 | 31296 ft | 404 kts | 203° |
| 2026-05-06 16:26 | 52.98693 | 18.94833 | 31641 ft | 404 kts | 203° |
| 2026-05-06 16:27 | 52.96041 | 18.93312 | 31981 ft | 403 kts | 203° |
| 2026-05-06 16:27 | 52.93389 | 18.91800 | 32296 ft | 403 kts | 203° |
| 2026-05-06 16:27 | 52.90733 | 18.90297 | 32647 ft | 403 kts | 203° |
| 2026-05-06 16:27 | 52.88088 | 18.88809 | 33017 ft | 402 kts | 203° |
| 2026-05-06 16:28 | 52.85442 | 18.87328 | 33370 ft | 401 kts | 203° |
| 2026-05-06 16:28 | 52.82799 | 18.85854 | 33690 ft | 401 kts | 203° |
| 2026-05-06 16:28 | 52.80156 | 18.84382 | 33947 ft | 401 kts | 203° |
| 2026-05-06 16:28 | 52.77509 | 18.82911 | 34167 ft | 402 kts | 203° |
| 2026-05-06 16:29 | 52.74854 | 18.81438 | 34386 ft | 403 kts | 202° |
| 2026-05-06 16:29 | 52.72200 | 18.79966 | 34621 ft | 403 kts | 202° |
| 2026-05-06 16:29 | 52.69541 | 18.78495 | 34865 ft | 403 kts | 202° |
| 2026-05-06 16:29 | 52.66879 | 18.77024 | 35082 ft | 404 kts | 202° |
| 2026-05-06 16:30 | 52.64213 | 18.75552 | 35302 ft | 404 kts | 202° |
| 2026-05-06 16:30 | 52.62449 | 18.74579 | 35469 ft | 404 kts | 202° |
| 2026-05-06 16:30 | 52.58876 | 18.72612 | 35759 ft | 405 kts | 202° |
| 2026-05-06 16:30 | 52.56202 | 18.71142 | 35957 ft | 406 kts | 202° |
| 2026-05-06 16:31 | 52.53525 | 18.69671 | 36174 ft | 406 kts | 202° |
| 2026-05-06 16:31 | 52.50845 | 18.68201 | 36368 ft | 406 kts | 202° |
| 2026-05-06 16:31 | 52.48160 | 18.66730 | 36570 ft | 407 kts | 202° |
| 2026-05-06 16:31 | 52.45473 | 18.65260 | 36767 ft | 408 kts | 202° |
| 2026-05-06 16:32 | 52.42780 | 18.63789 | 36974 ft | 408 kts | 202° |
| 2026-05-06 16:32 | 52.40087 | 18.62320 | 37175 ft | 408 kts | 201° |
| 2026-05-06 16:32 | 52.37396 | 18.60853 | 37363 ft | 408 kts | 201° |
| 2026-05-06 16:32 | 52.34733 | 18.59404 | 37558 ft | 409 kts | 201° |
| 2026-05-06 16:33 | 52.32035 | 18.57938 | 37739 ft | 409 kts | 201° |
| 2026-05-06 16:33 | 52.29320 | 18.56463 | 37741 ft | 412 kts | 201° |
| 2026-05-06 16:34 | 52.21152 | 18.52041 | 37754 ft | 412 kts | 201° |
| 2026-05-06 16:34 | 52.15708 | 18.49104 | 37754 ft | 412 kts | 201° |
| 2026-05-06 16:35 | 52.10270 | 18.46177 | 37750 ft | 412 kts | 201° |
| 2026-05-06 16:35 | 52.04835 | 18.43258 | 37756 ft | 411 kts | 201° |
| 2026-05-06 16:36 | 51.99400 | 18.40346 | 37735 ft | 411 kts | 201° |
| 2026-05-06 16:36 | 51.93970 | 18.37446 | 37754 ft | 411 kts | 201° |
| 2026-05-06 16:37 | 51.88532 | 18.34549 | 37749 ft | 412 kts | 201° |
| 2026-05-06 16:37 | 51.83088 | 18.31655 | 37752 ft | 412 kts | 201° |
| 2026-05-06 16:38 | 51.77635 | 18.28764 | 37757 ft | 413 kts | 201° |
| 2026-05-06 16:38 | 51.72173 | 18.25876 | 37752 ft | 413 kts | 201° |
| 2026-05-06 16:39 | 51.66703 | 18.22991 | 37758 ft | 413 kts | 201° |
| 2026-05-06 16:39 | 51.61233 | 18.20114 | 37754 ft | 414 kts | 201° |
| 2026-05-06 16:40 | 51.55762 | 18.17243 | 37754 ft | 413 kts | 201° |
| 2026-05-06 16:40 | 51.50301 | 18.14385 | 37758 ft | 412 kts | 201° |
| 2026-05-06 16:41 | 51.44852 | 18.11540 | 37751 ft | 411 kts | 201° |
| 2026-05-06 16:41 | 51.39459 | 18.08732 | 37753 ft | 410 kts | 201° |
| 2026-05-06 16:42 | 51.34008 | 18.05900 | 37756 ft | 408 kts | 202° |
| 2026-05-06 16:42 | 51.28657 | 18.03127 | 37760 ft | 406 kts | 202° |
| 2026-05-06 16:43 | 51.23282 | 18.00349 | 37766 ft | 405 kts | 202° |
| 2026-05-06 16:43 | 51.17930 | 17.97588 | 37768 ft | 404 kts | 202° |
| 2026-05-06 16:44 | 51.12586 | 17.94839 | 37767 ft | 403 kts | 202° |
| 2026-05-06 16:44 | 51.07260 | 17.92106 | 37768 ft | 402 kts | 202° |
| 2026-05-06 16:45 | 51.01941 | 17.89382 | 37770 ft | 401 kts | 201° |
| 2026-05-06 16:45 | 50.97524 | 17.87126 | 37768 ft | 401 kts | 201° |
| 2026-05-06 16:46 | 50.92214 | 17.84419 | 37773 ft | 401 kts | 201° |
| 2026-05-06 16:46 | 50.86900 | 17.81717 | 37766 ft | 401 kts | 201° |
| 2026-05-06 16:47 | 50.81588 | 17.79022 | 37771 ft | 401 kts | 201° |
| 2026-05-06 16:47 | 50.76269 | 17.76331 | 37769 ft | 402 kts | 201° |
| 2026-05-06 16:48 | 50.70943 | 17.73641 | 37771 ft | 402 kts | 201° |
| 2026-05-06 16:48 | 50.65613 | 17.70957 | 37761 ft | 402 kts | 201° |
| 2026-05-06 16:49 | 50.60274 | 17.68274 | 37770 ft | 403 kts | 201° |
| 2026-05-06 16:49 | 50.54929 | 17.65595 | 37768 ft | 404 kts | 201° |
| 2026-05-06 16:50 | 50.49572 | 17.62916 | 37772 ft | 404 kts | 201° |
| 2026-05-06 16:50 | 50.44206 | 17.60239 | 37772 ft | 405 kts | 201° |
| 2026-05-06 16:51 | 50.38841 | 17.57569 | 37773 ft | 405 kts | 201° |
| 2026-05-06 16:51 | 50.33475 | 17.54903 | 37780 ft | 405 kts | 201° |
| 2026-05-06 16:52 | 50.28143 | 17.52262 | 37776 ft | 405 kts | 201° |
| 2026-05-06 16:52 | 50.22879 | 17.49252 | 37775 ft | 402 kts | 205° |
| 2026-05-06 16:53 | 50.17697 | 17.45988 | 37783 ft | 401 kts | 206° |
| 2026-05-06 16:53 | 50.12531 | 17.42737 | 37783 ft | 400 kts | 205° |
| 2026-05-06 16:54 | 50.07364 | 17.39521 | 37787 ft | 399 kts | 205° |
| 2026-05-06 16:54 | 50.01680 | 17.36010 | 37767 ft | 399 kts | 205° |
| 2026-05-06 16:55 | 49.96530 | 17.32839 | 37784 ft | 398 kts | 205° |
| 2026-05-06 16:55 | 49.91389 | 17.29681 | 37788 ft | 397 kts | 205° |
| 2026-05-06 16:56 | 49.86244 | 17.26529 | 37783 ft | 398 kts | 205° |
| 2026-05-06 16:56 | 49.81085 | 17.23374 | 37779 ft | 399 kts | 205° |
| 2026-05-06 16:57 | 49.75913 | 17.20219 | 37775 ft | 400 kts | 205° |
| 2026-05-06 16:57 | 49.70730 | 17.17065 | 37779 ft | 401 kts | 205° |
| 2026-05-06 16:58 | 49.65538 | 17.13913 | 37775 ft | 401 kts | 205° |
| 2026-05-06 16:58 | 49.60340 | 17.10764 | 37776 ft | 401 kts | 205° |
| 2026-05-06 16:59 | 49.55139 | 17.07621 | 37769 ft | 401 kts | 205° |
| 2026-05-06 16:59 | 49.49974 | 17.04507 | 37767 ft | 402 kts | 205° |
| 2026-05-06 17:00 | 49.44767 | 17.01374 | 37769 ft | 402 kts | 205° |
| 2026-05-06 17:00 | 49.39563 | 16.98251 | 37769 ft | 402 kts | 205° |
| 2026-05-06 17:01 | 49.34359 | 16.95134 | 37769 ft | 401 kts | 205° |
| 2026-05-06 17:01 | 49.29163 | 16.92029 | 37760 ft | 401 kts | 205° |
| 2026-05-06 17:02 | 49.23964 | 16.88930 | 37756 ft | 401 kts | 205° |
| 2026-05-06 17:02 | 49.18773 | 16.85843 | 37750 ft | 400 kts | 205° |
| 2026-05-06 17:03 | 49.13590 | 16.82767 | 37742 ft | 399 kts | 205° |
| 2026-05-06 17:03 | 49.08409 | 16.79698 | 37757 ft | 399 kts | 205° |
| 2026-05-06 17:04 | 49.03223 | 16.76633 | 37741 ft | 400 kts | 205° |
| 2026-05-06 17:04 | 48.98907 | 16.74088 | 37748 ft | 400 kts | 205° |
| 2026-05-06 17:05 | 48.93708 | 16.71029 | 37742 ft | 401 kts | 204° |
| 2026-05-06 17:05 | 48.88498 | 16.67969 | 37749 ft | 402 kts | 204° |
| 2026-05-06 17:06 | 48.83275 | 16.64908 | 37740 ft | 403 kts | 204° |
| 2026-05-06 17:06 | 48.79774 | 16.62862 | 37751 ft | 404 kts | 204° |
| 2026-05-06 17:08 | 48.77245 | 16.61597 | 37725 ft | 407 kts | 197° |
| 2026-05-06 17:08 | 48.71685 | 16.59837 | 37736 ft | 409 kts | 195° |
| 2026-05-06 17:09 | 48.66139 | 16.58165 | 37748 ft | 409 kts | 195° |
| 2026-05-06 17:09 | 48.60552 | 16.56448 | 37759 ft | 410 kts | 195° |
| 2026-05-06 17:10 | 48.54955 | 16.54703 | 37744 ft | 411 kts | 195° |
| 2026-05-06 17:10 | 48.49361 | 16.52955 | 37747 ft | 411 kts | 195° |
| 2026-05-06 17:11 | 48.43832 | 16.51228 | 37748 ft | 411 kts | 195° |
| 2026-05-06 17:11 | 48.38250 | 16.49489 | 37740 ft | 410 kts | 195° |
| 2026-05-06 17:12 | 48.32661 | 16.47752 | 37744 ft | 410 kts | 195° |
| 2026-05-06 17:12 | 48.27086 | 16.46024 | 37747 ft | 409 kts | 195° |
| 2026-05-06 17:13 | 48.21524 | 16.44303 | 37745 ft | 408 kts | 195° |
| 2026-05-06 17:13 | 48.15979 | 16.42592 | 37745 ft | 407 kts | 195° |
| 2026-05-06 17:14 | 48.10440 | 16.40885 | 37728 ft | 405 kts | 195° |
| 2026-05-06 17:14 | 48.04923 | 16.39189 | 37759 ft | 405 kts | 195° |
| 2026-05-06 17:15 | 47.99404 | 16.37496 | 37774 ft | 405 kts | 195° |
| 2026-05-06 17:15 | 47.93879 | 16.35805 | 37774 ft | 405 kts | 195° |
| 2026-05-06 17:16 | 47.88350 | 16.34117 | 37798 ft | 406 kts | 195° |
| 2026-05-06 17:16 | 47.82815 | 16.32431 | 37784 ft | 405 kts | 195° |
| 2026-05-06 17:17 | 47.77332 | 16.30764 | 37774 ft | 404 kts | 195° |
| 2026-05-06 17:17 | 47.71831 | 16.29096 | 37781 ft | 403 kts | 195° |
| 2026-05-06 17:18 | 47.66345 | 16.27435 | 37785 ft | 402 kts | 195° |
| 2026-05-06 17:18 | 47.60875 | 16.25783 | 37801 ft | 401 kts | 195° |
| 2026-05-06 17:19 | 47.55420 | 16.24138 | 37812 ft | 399 kts | 195° |
| 2026-05-06 17:19 | 47.49981 | 16.22502 | 37809 ft | 399 kts | 195° |
| 2026-05-06 17:20 | 47.44550 | 16.20872 | 37820 ft | 398 kts | 195° |
| 2026-05-06 17:20 | 47.39125 | 16.19247 | 37827 ft | 398 kts | 195° |
| 2026-05-06 17:21 | 47.33703 | 16.17626 | 37828 ft | 398 kts | 195° |
| 2026-05-06 17:21 | 47.28275 | 16.16006 | 37801 ft | 398 kts | 195° |
| 2026-05-06 17:22 | 47.22793 | 16.14373 | 37841 ft | 406 kts | 194° |
| 2026-05-06 17:22 | 47.17217 | 16.12716 | 37846 ft | 411 kts | 194° |
| 2026-05-06 17:23 | 47.11593 | 16.11050 | 37857 ft | 414 kts | 194° |
| 2026-05-06 17:23 | 47.05938 | 16.09378 | 37841 ft | 415 kts | 194° |
| 2026-05-06 17:24 | 47.00269 | 16.07792 | 37847 ft | 416 kts | 191° |
| 2026-05-06 17:24 | 46.94560 | 16.06898 | 37857 ft | 415 kts | 189° |
| 2026-05-06 17:25 | 46.88816 | 16.06126 | 37858 ft | 413 kts | 189° |
| 2026-05-06 17:25 | 46.83100 | 16.05316 | 37873 ft | 412 kts | 189° |
| 2026-05-06 17:26 | 46.77409 | 16.04477 | 37869 ft | 411 kts | 189° |
| 2026-05-06 17:26 | 46.71733 | 16.03632 | 37873 ft | 410 kts | 189° |
| 2026-05-06 17:27 | 46.66066 | 16.02790 | 37863 ft | 409 kts | 189° |
| 2026-05-06 17:27 | 46.60403 | 16.01950 | 37878 ft | 409 kts | 189° |
| 2026-05-06 17:28 | 46.54738 | 16.01112 | 37879 ft | 410 kts | 189° |
| 2026-05-06 17:28 | 46.49052 | 16.00273 | 37891 ft | 411 kts | 189° |
| 2026-05-06 17:29 | 46.43354 | 15.99434 | 37891 ft | 412 kts | 189° |
| 2026-05-06 17:29 | 46.37635 | 15.98594 | 37885 ft | 414 kts | 189° |
| 2026-05-06 17:30 | 46.31907 | 15.97734 | 37883 ft | 413 kts | 192° |
| 2026-05-06 17:30 | 46.26395 | 15.95578 | 37534 ft | 411 kts | 201° |
| 2026-05-06 17:30 | 46.23703 | 15.94277 | 37183 ft | 406 kts | 201° |
| 2026-05-06 17:31 | 46.21043 | 15.92994 | 36842 ft | 400 kts | 201° |
| 2026-05-06 17:31 | 46.18415 | 15.91734 | 36439 ft | 396 kts | 201° |
| 2026-05-06 17:31 | 46.15811 | 15.90495 | 36083 ft | 392 kts | 201° |
| 2026-05-06 17:31 | 46.13267 | 15.89292 | 35716 ft | 389 kts | 201° |
| 2026-05-06 17:32 | 46.10703 | 15.88085 | 35336 ft | 386 kts | 201° |
| 2026-05-06 17:32 | 46.08157 | 15.86889 | 34961 ft | 383 kts | 201° |
| 2026-05-06 17:32 | 46.05632 | 15.85706 | 34587 ft | 380 kts | 202° |
| 2026-05-06 17:32 | 46.03124 | 15.84532 | 34217 ft | 378 kts | 202° |
| 2026-05-06 17:33 | 46.00631 | 15.83366 | 33854 ft | 376 kts | 202° |
| 2026-05-06 17:33 | 45.98149 | 15.82206 | 33441 ft | 374 kts | 202° |
| 2026-05-06 17:33 | 45.95686 | 15.81057 | 33045 ft | 371 kts | 202° |
| 2026-05-06 17:33 | 45.93240 | 15.79916 | 32678 ft | 368 kts | 202° |
| 2026-05-06 17:34 | 45.90809 | 15.78784 | 32312 ft | 365 kts | 202° |
| 2026-05-06 17:34 | 45.88401 | 15.77663 | 31954 ft | 363 kts | 202° |
| 2026-05-06 17:34 | 45.86008 | 15.76551 | 31608 ft | 360 kts | 202° |
| 2026-05-06 17:34 | 45.83636 | 15.75449 | 31259 ft | 357 kts | 202° |
| 2026-05-06 17:35 | 45.81280 | 15.74355 | 30915 ft | 355 kts | 202° |
| 2026-05-06 17:35 | 45.78939 | 15.73270 | 30570 ft | 352 kts | 202° |
| 2026-05-06 17:35 | 45.76613 | 15.72192 | 30237 ft | 350 kts | 202° |
| 2026-05-06 17:36 | 45.72014 | 15.70063 | 29487 ft | 345 kts | 202° |
| 2026-05-06 17:36 | 45.69739 | 15.69012 | 29118 ft | 342 kts | 202° |
| 2026-05-06 17:36 | 45.67490 | 15.67973 | 28764 ft | 339 kts | 202° |
| 2026-05-06 17:36 | 45.65254 | 15.66941 | 28428 ft | 338 kts | 202° |
| 2026-05-06 17:37 | 45.62967 | 15.65881 | 28087 ft | 356 kts | 202° |
| 2026-05-06 17:37 | 45.60536 | 15.64753 | 27709 ft | 375 kts | 201° |
| 2026-05-06 17:37 | 45.58053 | 15.63610 | 27286 ft | 375 kts | 201° |
| 2026-05-06 17:37 | 45.55607 | 15.62490 | 26898 ft | 373 kts | 201° |
| 2026-05-06 17:38 | 45.53144 | 15.61363 | 26503 ft | 371 kts | 201° |
| 2026-05-06 17:38 | 45.50695 | 15.60241 | 26117 ft | 369 kts | 201° |
| 2026-05-06 17:38 | 45.48262 | 15.59126 | 25740 ft | 367 kts | 201° |
| 2026-05-06 17:38 | 45.45842 | 15.58017 | 25368 ft | 365 kts | 201° |
| 2026-05-06 17:39 | 45.43446 | 15.56848 | 24977 ft | 362 kts | 205° |
| 2026-05-06 17:39 | 45.41155 | 15.55405 | 24619 ft | 359 kts | 207° |
| 2026-05-06 17:39 | 45.38898 | 15.53887 | 24256 ft | 358 kts | 208° |
| 2026-05-06 17:39 | 45.36655 | 15.52358 | 23881 ft | 357 kts | 208° |
| 2026-05-06 17:40 | 45.34418 | 15.50836 | 23500 ft | 357 kts | 207° |
| 2026-05-06 17:40 | 45.32179 | 15.49324 | 23069 ft | 355 kts | 207° |
| 2026-05-06 17:40 | 45.29948 | 15.47827 | 22659 ft | 353 kts | 207° |
| 2026-05-06 17:40 | 45.27734 | 15.46351 | 22292 ft | 350 kts | 207° |
| 2026-05-06 17:41 | 45.25536 | 15.44890 | 21911 ft | 347 kts | 207° |
| 2026-05-06 17:41 | 45.23354 | 15.43443 | 21566 ft | 345 kts | 207° |
| 2026-05-06 17:41 | 45.21188 | 15.42009 | 21186 ft | 343 kts | 207° |
| 2026-05-06 17:41 | 45.19035 | 15.40585 | 20836 ft | 341 kts | 207° |
| 2026-05-06 17:42 | 45.16896 | 15.39172 | 20478 ft | 338 kts | 207° |
| 2026-05-06 17:42 | 45.14764 | 15.37766 | 20128 ft | 337 kts | 207° |
| 2026-05-06 17:42 | 45.12646 | 15.36369 | 19772 ft | 335 kts | 207° |
| 2026-05-06 17:42 | 45.10536 | 15.34979 | 19425 ft | 334 kts | 207° |
| 2026-05-06 17:43 | 45.08430 | 15.33593 | 19082 ft | 333 kts | 207° |
| 2026-05-06 17:43 | 45.06333 | 15.32212 | 18716 ft | 331 kts | 206° |
| 2026-05-06 17:43 | 45.04248 | 15.30843 | 18392 ft | 330 kts | 206° |
| 2026-05-06 17:43 | 45.02166 | 15.29476 | 18026 ft | 329 kts | 206° |
| 2026-05-06 17:44 | 45.00091 | 15.28114 | 17615 ft | 329 kts | 206° |
| 2026-05-06 17:44 | 44.98025 | 15.26758 | 17270 ft | 325 kts | 206° |
| 2026-05-06 17:44 | 44.95977 | 15.25418 | 16917 ft | 324 kts | 206° |
| 2026-05-06 17:44 | 44.93934 | 15.24084 | 16554 ft | 323 kts | 207° |
| 2026-05-06 17:45 | 44.91899 | 15.22753 | 16202 ft | 322 kts | 207° |
| 2026-05-06 17:45 | 44.89874 | 15.21429 | 15857 ft | 320 kts | 207° |
| 2026-05-06 17:45 | 44.87857 | 15.20111 | 15515 ft | 319 kts | 207° |
| 2026-05-06 17:45 | 44.85851 | 15.18800 | 15175 ft | 316 kts | 207° |
| 2026-05-06 17:46 | 44.83867 | 15.17508 | 14836 ft | 313 kts | 207° |
| 2026-05-06 17:46 | 44.83541 | 15.17295 | 14782 ft | 312 kts | 207° |
| 2026-05-06 17:46 | 44.81579 | 15.16018 | 14442 ft | 309 kts | 207° |
| 2026-05-06 17:46 | 44.79661 | 15.14771 | 14116 ft | 306 kts | 207° |
| 2026-05-06 17:47 | 44.77713 | 15.13504 | 13780 ft | 303 kts | 207° |
| 2026-05-06 17:47 | 44.75879 | 15.12310 | 13397 ft | 299 kts | 207° |
| 2026-05-06 17:47 | 44.73984 | 15.11078 | 13073 ft | 295 kts | 207° |
| 2026-05-06 17:47 | 44.72153 | 15.09891 | 12741 ft | 292 kts | 207° |
| 2026-05-06 17:48 | 44.70317 | 15.08700 | 12380 ft | 289 kts | 207° |
| 2026-05-06 17:48 | 44.68507 | 15.07525 | 12099 ft | 285 kts | 207° |
| 2026-05-06 17:48 | 44.66711 | 15.06354 | 11764 ft | 284 kts | 208° |
| 2026-05-06 17:48 | 44.64966 | 15.05089 | 11465 ft | 282 kts | 210° |
| 2026-05-06 17:49 | 44.63243 | 15.03784 | 11127 ft | 281 kts | 211° |
| 2026-05-06 17:49 | 44.61523 | 15.02475 | 10820 ft | 281 kts | 210° |
| 2026-05-06 17:49 | 44.59805 | 15.01179 | 10505 ft | 281 kts | 210° |
| 2026-05-06 17:49 | 44.58076 | 14.99882 | 10165 ft | 281 kts | 210° |
| 2026-05-06 17:50 | 44.56353 | 14.98595 | 9899 ft | 278 kts | 210° |
| 2026-05-06 17:50 | 44.54681 | 14.97350 | 9628 ft | 273 kts | 210° |
| 2026-05-06 17:50 | 44.53014 | 14.96109 | 9228 ft | 268 kts | 210° |
| 2026-05-06 17:50 | 44.51378 | 14.94892 | 8882 ft | 263 kts | 210° |
| 2026-05-06 17:51 | 44.49765 | 14.93693 | 8575 ft | 262 kts | 210° |
| 2026-05-06 17:51 | 44.48153 | 14.92497 | 8296 ft | 262 kts | 210° |
| 2026-05-06 17:51 | 44.46537 | 14.91309 | 7997 ft | 263 kts | 207° |
| 2026-05-06 17:51 | 44.44751 | 14.90749 | 7683 ft | 269 kts | 181° |
| 2026-05-06 17:52 | 44.42927 | 14.91355 | 7429 ft | 274 kts | 159° |
| 2026-05-06 17:52 | 44.41359 | 14.92910 | 7145 ft | 280 kts | 140° |
| 2026-05-06 17:52 | 44.40020 | 14.94869 | 6952 ft | 276 kts | 137° |
| 2026-05-06 17:52 | 44.38723 | 14.96786 | 6817 ft | 264 kts | 139° |
| 2026-05-06 17:53 | 44.37466 | 14.98555 | 6705 ft | 249 kts | 141° |
| 2026-05-06 17:53 | 44.36244 | 15.00225 | 6441 ft | 244 kts | 141° |
| 2026-05-06 17:53 | 44.35023 | 15.01875 | 6162 ft | 244 kts | 141° |
| 2026-05-06 17:53 | 44.33810 | 15.03512 | 5939 ft | 241 kts | 140° |
| 2026-05-06 17:54 | 44.32625 | 15.05114 | 5876 ft | 237 kts | 141° |
| 2026-05-06 17:54 | 44.31422 | 15.06738 | 5582 ft | 242 kts | 140° |
| 2026-05-06 17:54 | 44.30206 | 15.08383 | 5263 ft | 245 kts | 138° |
| 2026-05-06 17:54 | 44.28988 | 15.10028 | 4935 ft | 243 kts | 138° |
| 2026-05-06 17:55 | 44.27791 | 15.11655 | 4629 ft | 237 kts | 139° |
| 2026-05-06 17:55 | 44.26632 | 15.13228 | 4336 ft | 228 kts | 137° |
| 2026-05-06 17:55 | 44.25889 | 15.14234 | 4127 ft | 222 kts | 138° |
| 2026-05-06 17:55 | 44.24455 | 15.16177 | 3756 ft | 208 kts | 139° |
| 2026-05-06 17:56 | 44.23777 | 15.17094 | 3567 ft | 203 kts | 138° |
| 2026-05-06 17:56 | 44.22795 | 15.18423 | 3305 ft | 190 kts | 137° |
| 2026-05-06 17:56 | 44.21864 | 15.19686 | 3063 ft | 183 kts | 137° |
| 2026-05-06 17:56 | 44.20967 | 15.20903 | 2822 ft | 177 kts | 138° |
| 2026-05-06 17:57 | 44.20100 | 15.22078 | 2582 ft | 171 kts | 138° |
| 2026-05-06 17:57 | 44.19257 | 15.23220 | 2369 ft | 167 kts | 138° |
| 2026-05-06 17:57 | 44.18436 | 15.24332 | 2145 ft | 162 kts | 137° |
| 2026-05-06 17:57 | 44.17641 | 15.25411 | 1930 ft | 156 kts | 136° |
| 2026-05-06 17:58 | 44.16896 | 15.26425 | 1743 ft | 143 kts | 137° |
| 2026-05-06 17:58 | 44.16226 | 15.27335 | 1559 ft | 127 kts | 138° |
| 2026-05-06 17:58 | 44.15585 | 15.28201 | 1406 ft | 131 kts | 136° |
| 2026-05-06 17:58 | 44.14934 | 15.29086 | 1210 ft | 129 kts | 136° |
| 2026-05-06 17:59 | 44.14286 | 15.29971 | 990 ft | 132 kts | 137° |
| 2026-05-06 17:59 | 44.13637 | 15.30858 | 853 ft | 130 kts | 135° |
| 2026-05-06 17:59 | 44.12990 | 15.31731 | 664 ft | 128 kts | 135° |
| 2026-05-06 17:59 | 44.12305 | 15.32667 | 494 ft | 148 kts | 134° |
| 2026-05-06 18:00 | 44.11559 | 15.33690 | 296 ft | 151 kts | 135° |
| 2026-05-06 18:00 | 44.10853 | 15.34648 | 265 ft | 128 kts | 135° |
| 2026-05-06 18:00 | 44.10171 | 15.35566 | 631 ft | 141 kts | 134° |
| 2026-05-06 18:00 | 44.09454 | 15.36528 | 875 ft | 146 kts | 135° |
| 2026-05-06 18:01 | 44.08746 | 15.37497 | 1097 ft | 146 kts | 137° |
| 2026-05-06 18:01 | 44.07941 | 15.38518 | 999 ft | 162 kts | 140° |
| 2026-05-06 18:01 | 44.07147 | 15.39496 | 1066 ft | 154 kts | 140° |
| 2026-05-06 18:01 | 44.06294 | 15.40579 | 1831 ft | 161 kts | 138° |
| 2026-05-06 18:02 | 44.05496 | 15.41593 | 2101 ft | 156 kts | 139° |
| 2026-05-06 18:02 | 44.04651 | 15.42653 | 2151 ft | 176 kts | 140° |
| 2026-05-06 18:02 | 44.03712 | 15.43824 | 2288 ft | 189 kts | 138° |
| 2026-05-06 18:02 | 44.02743 | 15.45205 | 2715 ft | 206 kts | 136° |
| 2026-05-06 18:03 | 44.01762 | 15.46631 | 2953 ft | 204 kts | 140° |
| 2026-05-06 18:03 | 44.00533 | 15.47511 | 2958 ft | 202 kts | 173° |
| 2026-05-06 18:03 | 43.99153 | 15.47178 | 2984 ft | 209 kts | 205° |
| 2026-05-06 18:03 | 43.98051 | 15.45831 | 3002 ft | 217 kts | 225° |
| 2026-05-06 18:04 | 43.97046 | 15.44240 | 3010 ft | 221 kts | 224° |
| 2026-05-06 18:04 | 43.96022 | 15.42647 | 3003 ft | 221 kts | 224° |
| 2026-05-06 18:04 | 43.95019 | 15.41038 | 2993 ft | 220 kts | 230° |
| 2026-05-06 18:04 | 43.94456 | 15.39065 | 2976 ft | 224 kts | 265° |
| 2026-05-06 18:05 | 43.94798 | 15.36948 | 2987 ft | 235 kts | 296° |
| 2026-05-06 18:05 | 43.95880 | 15.35211 | 3030 ft | 242 kts | 314° |
| 2026-05-06 18:05 | 43.97100 | 15.33591 | 2986 ft | 242 kts | 314° |
| 2026-05-06 18:05 | 43.98325 | 15.31980 | 2984 ft | 242 kts | 314° |
| 2026-05-06 18:06 | 43.99545 | 15.30393 | 3020 ft | 238 kts | 315° |
| 2026-05-06 18:06 | 44.00731 | 15.28823 | 3007 ft | 233 kts | 315° |
| 2026-05-06 18:06 | 44.01876 | 15.27291 | 2986 ft | 224 kts | 314° |
| 2026-05-06 18:06 | 44.02983 | 15.25808 | 2979 ft | 219 kts | 314° |
| 2026-05-06 18:07 | 44.04077 | 15.24349 | 2982 ft | 220 kts | 314° |
| 2026-05-06 18:07 | 44.05205 | 15.22875 | 2985 ft | 224 kts | 314° |
| 2026-05-06 18:07 | 44.06347 | 15.21391 | 2989 ft | 225 kts | 315° |
| 2026-05-06 18:07 | 44.07472 | 15.19912 | 2978 ft | 221 kts | 314° |
| 2026-05-06 18:08 | 44.08590 | 15.18446 | 2979 ft | 222 kts | 314° |
| 2026-05-06 18:08 | 44.09726 | 15.16983 | 2986 ft | 223 kts | 314° |
| 2026-05-06 18:08 | 44.10870 | 15.15514 | 2993 ft | 224 kts | 315° |
| 2026-05-06 18:08 | 44.11999 | 15.14030 | 2996 ft | 223 kts | 314° |
| 2026-05-06 18:09 | 44.13193 | 15.12654 | 2975 ft | 223 kts | 332° |
| 2026-05-06 18:09 | 44.14692 | 15.12347 | 2981 ft | 223 kts | 17° |
| 2026-05-06 18:09 | 44.15960 | 15.13468 | 3011 ft | 216 kts | 50° |
| 2026-05-06 18:09 | 44.17043 | 15.14951 | 2992 ft | 220 kts | 46° |
| 2026-05-06 18:10 | 44.18193 | 15.16366 | 2991 ft | 221 kts | 44° |
| 2026-05-06 18:10 | 44.19363 | 15.17752 | 2991 ft | 219 kts | 44° |
| 2026-05-06 18:10 | 44.20293 | 15.19287 | 2904 ft | 200 kts | 73° |
| 2026-05-06 18:10 | 44.20268 | 15.21070 | 2690 ft | 177 kts | 122° |
| 2026-05-06 18:11 | 44.19549 | 15.22396 | 2501 ft | 172 kts | 132° |
| 2026-05-06 18:11 | 44.18789 | 15.23681 | 2254 ft | 170 kts | 131° |
| 2026-05-06 18:11 | 44.18011 | 15.24887 | 2036 ft | 165 kts | 135° |
| 2026-05-06 18:11 | 44.17220 | 15.25986 | 1830 ft | 154 kts | 138° |
| 2026-05-06 18:12 | 44.16486 | 15.26981 | 1616 ft | 141 kts | 138° |
| 2026-05-06 18:12 | 44.15822 | 15.27881 | 1433 ft | 131 kts | 137° |
| 2026-05-06 18:12 | 44.15179 | 15.28754 | 1277 ft | 129 kts | 137° |
| 2026-05-06 18:12 | 44.14534 | 15.29629 | 1082 ft | 133 kts | 137° |
| 2026-05-06 18:13 | 44.13868 | 15.30535 | 929 ft | 133 kts | 139° |
| 2026-05-06 18:13 | 44.13201 | 15.31385 | 686 ft | 126 kts | 135° |
| 2026-05-06 18:13 | 44.12577 | 15.32282 | 543 ft | 133 kts | 133° |
| 2026-05-06 18:13 | 44.11887 | 15.33249 | 368 ft | 148 kts | 136° |
| 2026-05-06 18:14 | 44.11143 | 15.34240 | 264 ft | 140 kts | 132° |
| 2026-05-06 18:14 | 44.10583 | 15.35000 | 266 ft | 81 kts | 136° |
| 2026-05-06 18:14 | 44.10304 | 15.35375 | 265 ft | 46 kts | 136° |
| 2026-05-06 18:14 | 44.10110 | 15.35639 | 269 ft | 21 kts | 135° |
| 2026-05-06 18:15 | 44.10037 | 15.35711 | 269 ft | 10 kts | 188° |
| 2026-05-06 18:15 | 44.09987 | 15.35648 | 269 ft | 10 kts | 227° |
| 2026-05-06 18:15 | 44.09938 | 15.35578 | 269 ft | 10 kts | 224° |
| 2026-05-06 18:15 | 44.09880 | 15.35527 | 269 ft | 10 kts | 188° |
| 2026-05-06 18:16 | 44.09812 | 15.35537 | 269 ft | 10 kts | 178° |
| 2026-05-06 18:16 | 44.09746 | 15.35539 | 269 ft | 9 kts | 177° |
| 2026-05-06 18:16 | 44.09681 | 15.35542 | 269 ft | 9 kts | 178° |
| 2026-05-06 18:16 | 44.09635 | 15.35528 | 269 ft | 6 kts | 230° |
| 2026-05-06 18:17 | 44.09633 | 15.35475 | 269 ft | 6 kts | 291° |
| 2026-05-06 18:17 | 44.09654 | 15.35447 | 269 ft | 3 kts | 322° |
| 2026-05-06 18:17 | 44.09669 | 15.35432 | 269 ft | 2 kts | 324° |
| 2026-05-06 18:17 | 44.09670 | 15.35431 | 269 ft | 0 kts | 324° |